KAY weather

Wakaya Island Airport
Wakaya Island, Eastern, Fiji

Public forecast

Using degrees Celsius for public forecast. Weather courtesy of forecast.io.

METAR (pilot weather report)

Closest report is Nausori International Airport, 36.6 nm (67.8 km) SW. Retrieved 2019/09/16 23:00 UTC (41 minutes ago):

NFNA 162300Z 15010KT 110V190 9999 SCT020 BKN048 25/18 Q1019

TAF (pilot weather forecast)

Closest forecast is Nausori International Airport, 36.6 nm (67.8 km) SW. Retrieved 2019/09/16 18:00 UTC (6 hours ago):

TAF NFNA 161702Z 1618/1718 15008KT 9999 BKN020 BKN048